Landels-Hill Big Creek Reserve Entrance, California Weather observations

Data are for 10 minute period ending at time listed.
 Day   Time   Solar   Ave.   Ave.  Ave.  Vector  Max.   Baro.   Total    
  of    of     Rad.   Air    Rel.  Wind   Wind   Wind  Press.  Precip.   
Year   Day            Temp.  Hum.  Speed  Dir.   Gust                    
2015   (PST)  Kw/m2    F      %     mph   deg.    mph    mb.     in.     
-------------------------------------------------------------------------
  29    5:00   0.00   51.9    71    5.3     2     9.4   1015.1    0.00 
  29    5:10   0.00   52.0    70    4.9    10    10.2   1015.0    0.00 
  29    5:20   0.00   51.8    70    4.7     8     8.9   1014.9    0.00 
  29    5:30   0.00   51.4    72    4.5     5     8.0   1014.9    0.00 
  29    5:40   0.00   52.0    70    5.2     9     9.3   1014.9    0.00 
  29    5:50   0.00   52.6    68    2.7    39     7.4   1015.0    0.00 
  29    6:00   0.00   52.2    69    1.9    32     5.0   1015.2    0.00 
  29    6:10   0.00   51.9    70    1.9    44     4.0   1015.2    0.00 
  29    6:20   0.00   51.3    72    2.6    27     5.6   1015.2    0.00 
  29    6:30   0.00   51.5    72    2.0    35     5.7   1015.3    0.00 
  29    6:40   0.00   51.6    71    2.9    42     5.8   1015.3    0.00 
  29    6:50   0.00   51.5    71    3.5    35     8.5   1015.3    0.00 
  29    7:00   0.00   51.9    70    3.1    46     6.5   1015.4    0.00 
  29    7:10   0.00   51.7    70    3.4    53     7.7   1015.4    0.00 
  29    7:20   0.00   51.8    70    3.5    51     6.4   1015.5    0.00 
  29    7:30   0.01   51.7    70    2.7    44     5.6   1015.5    0.00 
  29    7:40   0.01   51.7    70    2.1    16     4.5   1015.6    0.00 
  29    7:50   0.01   51.0    73    2.2    52     4.8   1015.7    0.00 
  29    8:00   0.01   51.3    72    2.8    50     6.2   1015.6    0.00 
  29    8:10   0.01   51.7    71    2.8    41     6.3   1015.6    0.00 
  29    8:20   0.01   51.9    71    2.4    28     6.1   1015.7    0.00 
  29    8:30   0.01   52.4    71    2.3    45     6.0   1015.7    0.00 
  29    8:40   0.02   52.4    71    2.4    55     4.2   1015.8    0.00 
  29    8:50   0.03   52.7    72    1.2    45     3.9   1015.8    0.00 
  29    9:00   0.03   52.9    72    2.1    14     5.3   1015.8    0.00 
  29    9:10   0.03   52.6    73    2.8   358     5.6   1015.8    0.00 
  29    9:20   0.03   52.4    75    2.1   357     4.1   1015.7    0.00 
  29    9:30   0.03   52.6    77    2.0   345     3.5   1015.7    0.00 
  29    9:40   0.03   53.2    76    0.8   350     2.2   1015.8    0.00 
  29    9:50   0.03   54.2    75    0.4   345     2.0   1015.9    0.00 
  29   10:00   0.03   55.7    70    1.0    71     2.5   1016.0    0.00 
  29   10:10   0.03   57.6    65    1.2   122     2.3   1016.0    0.00 
  29   10:20   0.03   58.8    62    1.6   112     2.6   1015.9    0.00 
  29   10:30   0.03   59.0    60    2.0   136     3.6   1015.8    0.00 
  29   10:40   0.03   58.9    64    1.8   141     3.3   1015.8    0.00 
  29   10:50   0.15   58.7    68    1.4   145     3.0   1015.8    0.00 
  29   11:00   0.50   59.5    73    1.4   175     3.7   1015.7    0.00 
  29   11:10   0.52   61.0    73    1.0   179     2.9   1015.4    0.00 
  29   11:20   0.53   61.4    71    1.7   169     3.1   1015.2    0.00 
  29   11:30   0.54   61.9    73    1.7   213     3.6   1015.5    0.00 
  29   11:40   0.55   61.8    72    2.1   200     3.4   1015.5    0.00 
  29   11:50   0.57   62.4    71    2.1   213     3.8   1015.4    0.00 
  29   12:00   0.57   61.9    71    2.4   203     3.7   1015.3    0.00 
  29   12:10   0.58   62.8    70    2.7   188     4.5   1015.2    0.00 
  29   12:20   0.58   62.0    74    2.8   146     5.0   1015.1    0.00 
  29   12:30   0.58   60.6    78    4.1   131     7.0   1015.0    0.00 
  29   12:40   0.58   60.8    73    3.3   129     7.8   1014.8    0.00 
  29   12:50   0.58   62.6    62    2.3   157     4.8   1014.5    0.00 
  29   13:00   0.58   62.9    59    1.8   157     4.1   1014.3    0.00 
  29   13:10   0.57   62.9    65    2.9   147     5.4   1014.1    0.00 
  29   13:20   0.57   62.8    69    3.0   153     5.9   1014.0    0.00 
  29   13:30   0.56   62.9    70    1.7   170     3.7   1013.8    0.00 
  29   13:40   0.55   64.1    67    1.9   186     5.4   1013.6    0.00 
  29   13:50   0.54   64.2    66    2.1   222     5.2   1013.5    0.00 
  29   14:00   0.52   64.2    68    1.1   222     3.3   1013.6    0.00 
  29   14:10   0.51   64.2    68    1.8   192     4.1   1013.7    0.00 
  29   14:20   0.49   64.1    70    1.8   173     8.6   1013.7    0.00 
  29   14:30   0.47   62.8    73    3.3   170     8.8   1013.7    0.00 
  29   14:40   0.45   63.1    74    2.5   155     5.2   1013.6    0.00 
  29   14:50   0.43   63.6    66    2.2   158     5.3   1013.5    0.00 
  29   15:00   0.41   63.7    57    2.6   169     8.2   1013.5    0.00 
  29   15:10   0.39   62.8    68    4.3   182     9.1   1013.5    0.00 
  29   15:20   0.36   63.7    67    2.6   204     7.4   1013.4    0.00 
  29   15:30   0.34   64.0    68    2.1   220     5.2   1013.4    0.00 
  29   15:40   0.31   63.1    70    4.5   168    10.2   1013.4    0.00 
  29   15:50   0.28   62.0    73    4.3   196     9.0   1013.5    0.00 
  29   16:00   0.25   61.2    75    5.5   173    10.4   1013.6    0.00 
  29   16:10   0.22   60.8    76    4.7   175    11.8   1013.5    0.00 
  29   16:20   0.19   60.6    76    4.8   167     9.9   1013.4    0.00 
  29   16:30   0.17   60.5    78    3.4   174     7.4   1013.3    0.00 
  29   16:40   0.14   60.4    80    3.2   179     7.8   1013.1    0.00 
  29   16:50   0.11   60.3    80    2.3   187     4.7   1013.0    0.00 
  29   17:00   0.07   60.1    80    2.6   177     6.1   1012.9    0.00 
  29   17:10   0.03   59.8    81    0.5   180     3.1   1012.7    0.00 
  29   17:20   0.02   58.6    81    0.9   346     2.3   1012.6    0.00 
  29   17:30   0.01   57.5    83    1.0    21     2.3   1012.6    0.00 
  29   17:40   0.01   56.8    84    1.1    23     3.1   1012.7    0.00 
  29   17:50   0.00   56.3    83    1.0    22     2.7   1012.8    0.00 
  29   18:00   0.00   55.6    82    1.4    31     3.1   1012.9    0.00 
  29   18:10   0.00   55.3    82    2.0    39     4.0   1012.9    0.00 
  29   18:20   0.00   55.4    80    1.5    35     4.0   1012.9    0.00 
  29   18:30   0.00   55.0    80    1.6    23     4.2   1013.1    0.00 
  29   18:40   0.00   54.5    81    1.9    29     3.8   1013.2    0.00 
  29   18:50   0.00   54.5    80    1.6    52     4.1   1013.3    0.00 
  29   19:00   0.00   54.2    79    1.3    32     3.4   1013.4    0.00 
  29   19:10   0.00   54.0    79    0.7    24     2.6   1013.4    0.00 
  29   19:20   0.00   53.9    78    1.4    39     2.7   1013.5    0.00 
  29   19:30   0.00   54.0    77    1.5    30     3.5   1013.5    0.00 
  29   19:40   0.00   53.9    77    1.9    34     4.7   1013.4    0.00 
  29   19:50   0.00   54.2    75    0.7    42     2.4   1013.5    0.00 
  29   20:00   0.00   53.7    76    1.4     0     2.9   1013.6    0.00 
  29   20:10   0.00   53.0    78    2.3    28     4.2   1013.5    0.00 
  29   20:20   0.00   52.8    79    0.9    14     3.0   1013.5    0.00 
  29   20:30   0.00   52.6    79    1.8    16     4.0   1013.5    0.00 
  29   20:40   0.00   52.3    80    2.2    13     5.2   1013.5    0.00 
  29   20:50   0.00   52.2    80    2.2     5     4.3   1013.5    0.00 
  29   21:00   0.00   52.1    80    2.8    13     4.6   1013.4    0.00 
  29   21:10   0.00   52.1    80    1.9    31     4.2   1013.4    0.00 
  29   21:20   0.00   53.3    76    2.0    27     5.6   1013.3    0.00 
  29   21:30   0.00   53.5    75    1.1    30     2.5   1013.2    0.00 
  29   21:40   0.00   52.7    77    1.2   356     3.9   1013.3    0.00 
  29   21:50   0.00   51.8    80    1.8   353     3.8   1013.4    0.00 
  29   22:00   0.00   51.4    83    2.1   356     4.2   1013.4    0.00 
  29   22:10   0.00   51.8    83    2.1    15     4.7   1013.4    0.00 
  29   22:20   0.00   51.7    82    2.3     2     3.7   1013.5    0.00 
  29   22:30   0.00   51.6    82    2.0     8     4.1   1013.5    0.00 
  29   22:40   0.00   51.5    82    2.1    16     5.3   1013.6    0.00 
  29   22:50   0.00   51.7    82    2.2    23     4.5   1013.5    0.00 
  29   23:00   0.00   52.0    80    2.0    48     4.5   1013.6    0.00 
  29   23:10   0.00   52.0    79    2.3    46     5.2   1013.6    0.00 
  29   23:20   0.00   52.1    78    2.1    36     5.6   1013.6    0.00 
  29   23:30   0.00   52.9    75    2.6    35     6.4   1013.5    0.00 
  29   23:40   0.00   53.7    71    2.8    21     7.4   1013.5    0.00 
  29   23:50   0.00   53.8    71    2.0    50     6.1   1013.4    0.00 
  30    0:00   0.00   53.3    72    0.8    77     2.1   1013.5    0.00 
  30    0:10   0.00   52.3    75    1.9    12     3.9   1013.7    0.00 
  30    0:20   0.00   51.2    79    2.6    17     5.0   1013.6    0.00 
  30    0:30   0.00   51.4    79    2.1    40     5.6   1013.5    0.00 
  30    0:40   0.00   52.5    74    2.5    30     6.6   1013.2    0.00 
  30    0:50   0.00   52.3    74    3.3    55     8.0   1013.0    0.00 
  30    1:00   0.00   52.9    72    3.0    45     6.2   1012.9    0.00 
  30    1:10   0.00   53.4    70    1.8    20     4.7   1012.9    0.00 
  30    1:20   0.00   52.6    72    2.2    36     6.1   1012.7    0.00 
  30    1:30   0.00   52.7    71    3.2    25     7.4   1012.6    0.00 
  30    1:40   0.00   52.8    70    3.3    29     7.5   1012.6    0.00 
  30    1:50   0.00   53.5    67    3.0    37     7.7   1012.5    0.00 
  30    2:00   0.00   53.2    68    2.1    32     5.8   1012.4    0.00 
  30    2:10   0.00   52.5    70    0.9    67     2.9   1012.5    0.00 
  30    2:20   0.00   51.6    73    1.3    30     3.2   1012.6    0.00 
  30    2:30   0.00   50.8    76    1.7    29     3.7   1012.5    0.00 
  30    2:40   0.00   51.0    75    2.0    43     5.5   1012.3    0.00 
  30    2:50   0.00   51.7    72    1.9    48     4.1   1012.3    0.00 
  30    3:00   0.00   51.6    72    0.9   110     3.2   1012.4    0.00 
  30    3:10   0.00   50.6    75    1.9    15     3.4   1012.5    0.00 
  30    3:20   0.00   50.3    77    2.5    27     4.7   1012.5    0.00 
  30    3:30   0.00   50.5    76    1.5    36     4.2   1012.5    0.00 
  30    3:40   0.00   50.5    76    1.2    37     3.1   1012.4    0.00 
  30    3:50   0.00   50.3    76    1.3    35     3.3   1012.3    0.00 
  30    4:00   0.00   49.6    79    2.0    12     4.0   1012.2    0.00 
  30    4:10   0.00   49.3    80    2.0    20     4.2   1012.2    0.00 
  30    4:20   0.00   49.5    80    1.5    41     5.3   1012.2    0.00 
  30    4:30   0.00   49.7    78    1.7    44     4.9   1012.2    0.00 
  30    4:40   0.00   50.2    77    2.4    50     4.5   1012.1    0.00 
  30    4:50   0.00   50.5    76    2.4    24     6.6   1012.0    0.00 

Return to Big Creek Reserve Entrance graphs page.


Western Regional Climate Center,wrcc@dri.edu